Hovedside
METAR-TAF:

METAR-TAF

Lufthavner :

Sveg lufthavn

Sveg, Sverige

breddegrad: 62-02-52N, lengdegrad: 014-25-22E, høyde over havet: 359 m

Gjeldene værobservasjon

Denne rapporten ble laget for 23 minutter siden, klokken 18:50 UTC
Vind 8 kt fra Vest-nordvest
Temperatur -6°C
Luftfuktighet 100%
Trykk 1031 hPa
Sikt 10 km eller mer
Overskyet i en høyde av 300 ft

METAR: ESND 211850Z 29008KT 9999 OVC003 M06/M06 Q1031

Tid: 20:13 (19:13 UTC)


TAF: fraværende

Værobservasjoner og værvarsel for over 4000 flyplasser (METAR- og TAF-rapporter).

Tilgjengelige stasjoner er representert av de røde og gule prikkene på kartet.

Hold musepekeren over prikken for å se navnet på stasjonen.

Klikk så for å se værobservasjoner og -varsler.

For å forandre kartet kan du klikke på den grønne knappen med svart kryss for å zoome inn, på den grønne knappen med strek for å zoome ut, eller på de grønne pilene for å se tilstøtende kart.


METAR-TAF: